sensor_id;sensor_type;location;lat;lon;timestamp;temperature;humidity
71367;DHT22;60030;52.274;8.040;2023-04-01T00:00:34;11.40;99.90
71367;DHT22;60030;52.274;8.040;2023-04-01T00:03:02;11.40;99.90
71367;DHT22;60030;52.274;8.040;2023-04-01T00:05:29;11.50;99.90
71367;DHT22;60030;52.274;8.040;2023-04-01T00:07:56;11.50;99.90
71367;DHT22;60030;52.274;8.040;2023-04-01T00:10:23;11.40;99.90
71367;DHT22;60030;52.274;8.040;2023-04-01T00:12:50;11.50;99.90
71367;DHT22;60030;52.274;8.040;2023-04-01T00:15:18;11.50;99.90
71367;DHT22;60030;52.274;8.040;2023-04-01T00:17:45;11.50;99.90
71367;DHT22;60030;52.274;8.040;2023-04-01T00:20:12;11.40;99.90
71367;DHT22;60030;52.274;8.040;2023-04-01T00:22:40;11.40;99.90
71367;DHT22;60030;52.274;8.040;2023-04-01T00:25:07;11.30;99.90
71367;DHT22;60030;52.274;8.040;2023-04-01T00:27:35;11.40;99.90
71367;DHT22;60030;52.274;8.040;2023-04-01T00:30:02;11.40;99.90
71367;DHT22;60030;52.274;8.040;2023-04-01T00:32:31;11.30;99.90
71367;DHT22;60030;52.274;8.040;2023-04-01T00:34:58;11.40;99.90
71367;DHT22;60030;52.274;8.040;2023-04-01T00:37:25;11.40;99.90
71367;DHT22;60030;52.274;8.040;2023-04-01T00:39:52;11.40;99.90
71367;DHT22;60030;52.274;8.040;2023-04-01T00:42:20;11.30;99.90
71367;DHT22;60030;52.274;8.040;2023-04-01T00:44:49;11.30;99.90
71367;DHT22;60030;52.274;8.040;2023-04-01T00:47:17;11.30;99.90
71367;DHT22;60030;52.274;8.040;2023-04-01T00:49:48;11.20;99.90
71367;DHT22;60030;52.274;8.040;2023-04-01T00:52:20;11.30;99.90
71367;DHT22;60030;52.274;8.040;2023-04-01T00:54:52;11.40;99.90
71367;DHT22;60030;52.274;8.040;2023-04-01T00:57:27;11.40;99.90
71367;DHT22;60030;52.274;8.040;2023-04-01T00:59:57;11.40;99.90
71367;DHT22;60030;52.274;8.040;2023-04-01T01:02:25;11.40;99.90
71367;DHT22;60030;52.274;8.040;2023-04-01T01:04:53;11.40;99.90
71367;DHT22;60030;52.274;8.040;2023-04-01T01:07:25;11.30;99.90
71367;DHT22;60030;52.274;8.040;2023-04-01T01:10:02;11.30;99.90
71367;DHT22;60030;52.274;8.040;2023-04-01T01:12:34;11.30;99.90
71367;DHT22;60030;52.274;8.040;2023-04-01T01:15:09;11.40;99.90
71367;DHT22;60030;52.274;8.040;2023-04-01T01:17:44;11.30;99.90
71367;DHT22;60030;52.274;8.040;2023-04-01T01:20:55;11.20;99.90
71367;DHT22;60030;52.274;8.040;2023-04-01T01:26:38;11.30;99.90
71367;DHT22;60030;52.274;8.040;2023-04-01T01:29:14;11.30;99.90
71367;DHT22;60030;52.274;8.040;2023-04-01T01:31:50;11.30;99.90
71367;DHT22;60030;52.274;8.040;2023-04-01T01:34:22;11.30;99.90
71367;DHT22;60030;52.274;8.040;2023-04-01T01:36:56;11.30;99.90
71367;DHT22;60030;52.274;8.040;2023-04-01T01:39:26;11.20;99.90
71367;DHT22;60030;52.274;8.040;2023-04-01T01:41:57;11.20;99.90
71367;DHT22;60030;52.274;8.040;2023-04-01T01:44:28;11.20;99.90
71367;DHT22;60030;52.274;8.040;2023-04-01T01:46:56;11.30;99.90
71367;DHT22;60030;52.274;8.040;2023-04-01T01:49:24;11.20;99.90
71367;DHT22;60030;52.274;8.040;2023-04-01T01:51:53;11.40;99.90
71367;DHT22;60030;52.274;8.040;2023-04-01T01:54:20;11.30;99.90
71367;DHT22;60030;52.274;8.040;2023-04-01T01:56:50;11.20;99.90
71367;DHT22;60030;52.274;8.040;2023-04-01T01:59:20;11.20;99.90
71367;DHT22;60030;52.274;8.040;2023-04-01T02:01:50;11.20;99.90
71367;DHT22;60030;52.274;8.040;2023-04-01T02:04:18;11.20;99.90
71367;DHT22;60030;52.274;8.040;2023-04-01T02:06:49;11.20;99.90
71367;DHT22;60030;52.274;8.040;2023-04-01T02:09:20;11.20;99.90
71367;DHT22;60030;52.274;8.040;2023-04-01T02:11:50;11.20;99.90
71367;DHT22;60030;52.274;8.040;2023-04-01T02:14:21;11.30;99.90
71367;DHT22;60030;52.274;8.040;2023-04-01T02:16:53;11.40;99.90
71367;DHT22;60030;52.274;8.040;2023-04-01T02:19:24;11.30;99.90
71367;DHT22;60030;52.274;8.040;2023-04-01T02:21:55;11.20;99.90
71367;DHT22;60030;52.274;8.040;2023-04-01T02:24:27;11.20;99.90
71367;DHT22;60030;52.274;8.040;2023-04-01T02:26:55;11.20;99.90
71367;DHT22;60030;52.274;8.040;2023-04-01T02:29:24;11.20;99.90
71367;DHT22;60030;52.274;8.040;2023-04-01T02:31:52;11.20;99.90
71367;DHT22;60030;52.274;8.040;2023-04-01T02:34:21;11.20;99.90
71367;DHT22;60030;52.274;8.040;2023-04-01T02:36:50;11.10;99.90
71367;DHT22;60030;52.274;8.040;2023-04-01T02:39:17;11.10;99.90
71367;DHT22;60030;52.274;8.040;2023-04-01T02:41:46;11.10;99.90
71367;DHT22;60030;52.274;8.040;2023-04-01T02:44:15;11.20;99.90
71367;DHT22;60030;52.274;8.040;2023-04-01T02:46:43;11.30;99.90
71367;DHT22;60030;52.274;8.040;2023-04-01T02:49:10;11.30;99.90
71367;DHT22;60030;52.274;8.040;2023-04-01T02:51:37;11.30;99.90
71367;DHT22;60030;52.274;8.040;2023-04-01T02:54:05;11.20;99.90
71367;DHT22;60030;52.274;8.040;2023-04-01T02:56:32;11.20;99.90
71367;DHT22;60030;52.274;8.040;2023-04-01T02:59:00;11.20;99.90
71367;DHT22;60030;52.274;8.040;2023-04-01T03:01:27;11.20;99.90
71367;DHT22;60030;52.274;8.040;2023-04-01T03:03:54;11.20;99.90
71367;DHT22;60030;52.274;8.040;2023-04-01T03:06:21;11.20;99.90
71367;DHT22;60030;52.274;8.040;2023-04-01T03:08:52;11.20;99.90
71367;DHT22;60030;52.274;8.040;2023-04-01T03:11:19;11.10;99.90
71367;DHT22;60030;52.274;8.040;2023-04-01T03:13:47;11.10;99.90
71367;DHT22;60030;52.274;8.040;2023-04-01T03:16:16;11.20;99.90
71367;DHT22;60030;52.274;8.040;2023-04-01T03:18:43;11.30;99.90
71367;DHT22;60030;52.274;8.040;2023-04-01T03:21:15;11.20;99.90
71367;DHT22;60030;52.274;8.040;2023-04-01T03:23:42;11.20;99.90
71367;DHT22;60030;52.274;8.040;2023-04-01T03:26:09;11.20;99.90
71367;DHT22;60030;52.274;8.040;2023-04-01T03:28:37;11.20;99.90
71367;DHT22;60030;52.274;8.040;2023-04-01T03:31:04;11.20;99.90
71367;DHT22;60030;52.274;8.040;2023-04-01T03:33:40;11.20;99.90
71367;DHT22;60030;52.274;8.040;2023-04-01T03:36:07;11.10;99.90
71367;DHT22;60030;52.274;8.040;2023-04-01T03:38:37;11.20;99.90
71367;DHT22;60030;52.274;8.040;2023-04-01T03:41:04;11.10;99.90
71367;DHT22;60030;52.274;8.040;2023-04-01T03:43:32;11.10;99.90
71367;DHT22;60030;52.274;8.040;2023-04-01T03:46:00;11.00;99.90
71367;DHT22;60030;52.274;8.040;2023-04-01T03:48:27;11.00;99.90
71367;DHT22;60030;52.274;8.040;2023-04-01T03:50:55;11.00;99.90
71367;DHT22;60030;52.274;8.040;2023-04-01T03:53:23;11.00;99.90
71367;DHT22;60030;52.274;8.040;2023-04-01T03:55:51;11.10;99.90
71367;DHT22;60030;52.274;8.040;2023-04-01T03:58:19;11.00;99.90
71367;DHT22;60030;52.274;8.040;2023-04-01T04:00:46;11.00;99.90
71367;DHT22;60030;52.274;8.040;2023-04-01T04:03:13;11.00;99.90
71367;DHT22;60030;52.274;8.040;2023-04-01T04:05:46;11.10;99.90
71367;DHT22;60030;52.274;8.040;2023-04-01T04:08:16;11.20;99.90
71367;DHT22;60030;52.274;8.040;2023-04-01T04:10:44;11.10;99.90
71367;DHT22;60030;52.274;8.040;2023-04-01T04:13:12;11.00;99.90
71367;DHT22;60030;52.274;8.040;2023-04-01T04:15:45;11.10;99.90
71367;DHT22;60030;52.274;8.040;2023-04-01T04:18:12;11.10;99.90
71367;DHT22;60030;52.274;8.040;2023-04-01T04:20:43;11.10;99.90
71367;DHT22;60030;52.274;8.040;2023-04-01T04:23:13;11.00;99.90
71367;DHT22;60030;52.274;8.040;2023-04-01T04:25:42;11.00;99.90
71367;DHT22;60030;52.274;8.040;2023-04-01T04:28:19;11.10;99.90
71367;DHT22;60030;52.274;8.040;2023-04-01T04:30:46;11.10;99.90
71367;DHT22;60030;52.274;8.040;2023-04-01T04:33:13;11.00;99.90
71367;DHT22;60030;52.274;8.040;2023-04-01T04:35:41;11.00;99.90
71367;DHT22;60030;52.274;8.040;2023-04-01T04:38:09;10.90;99.90
71367;DHT22;60030;52.274;8.040;2023-04-01T04:40:36;11.00;99.90
71367;DHT22;60030;52.274;8.040;2023-04-01T04:43:05;11.10;99.90
71367;DHT22;60030;52.274;8.040;2023-04-01T04:45:32;11.10;99.90
71367;DHT22;60030;52.274;8.040;2023-04-01T04:47:59;11.00;99.90
71367;DHT22;60030;52.274;8.040;2023-04-01T04:50:27;10.90;99.90
71367;DHT22;60030;52.274;8.040;2023-04-01T04:52:55;10.90;99.90
71367;DHT22;60030;52.274;8.040;2023-04-01T04:55:22;11.00;99.90
71367;DHT22;60030;52.274;8.040;2023-04-01T04:58:01;11.10;99.90
71367;DHT22;60030;52.274;8.040;2023-04-01T05:00:30;11.00;99.90
71367;DHT22;60030;52.274;8.040;2023-04-01T05:03:00;11.00;99.90
71367;DHT22;60030;52.274;8.040;2023-04-01T05:05:27;10.90;99.90
71367;DHT22;60030;52.274;8.040;2023-04-01T05:07:54;11.00;99.90
71367;DHT22;60030;52.274;8.040;2023-04-01T05:10:21;11.00;99.90
71367;DHT22;60030;52.274;8.040;2023-04-01T05:12:48;11.00;99.90
71367;DHT22;60030;52.274;8.040;2023-04-01T05:15:19;11.00;99.90
71367;DHT22;60030;52.274;8.040;2023-04-01T05:17:48;11.10;99.90
71367;DHT22;60030;52.274;8.040;2023-04-01T05:20:16;11.00;99.90
71367;DHT22;60030;52.274;8.040;2023-04-01T05:22:43;11.10;99.90
71367;DHT22;60030;52.274;8.040;2023-04-01T05:25:10;11.00;99.90
71367;DHT22;60030;52.274;8.040;2023-04-01T05:27:38;11.00;99.90
71367;DHT22;60030;52.274;8.040;2023-04-01T05:30:06;11.10;99.90
71367;DHT22;60030;52.274;8.040;2023-04-01T05:32:57;11.10;99.90
71367;DHT22;60030;52.274;8.040;2023-04-01T05:35:24;11.00;99.90
71367;DHT22;60030;52.274;8.040;2023-04-01T05:37:51;11.00;99.90
71367;DHT22;60030;52.274;8.040;2023-04-01T05:40:20;11.20;99.90
71367;DHT22;60030;52.274;8.040;2023-04-01T05:42:47;11.10;99.90
71367;DHT22;60030;52.274;8.040;2023-04-01T05:45:15;11.20;99.90
71367;DHT22;60030;52.274;8.040;2023-04-01T05:48:09;11.20;99.90
71367;DHT22;60030;52.274;8.040;2023-04-01T05:50:40;11.20;99.90
71367;DHT22;60030;52.274;8.040;2023-04-01T05:53:09;11.30;99.90
71367;DHT22;60030;52.274;8.040;2023-04-01T05:55:37;11.30;99.90
71367;DHT22;60030;52.274;8.040;2023-04-01T05:58:05;11.30;99.90
71367;DHT22;60030;52.274;8.040;2023-04-01T06:00:33;11.40;99.90
71367;DHT22;60030;52.274;8.040;2023-04-01T06:03:00;11.40;99.90
71367;DHT22;60030;52.274;8.040;2023-04-01T06:05:30;11.30;99.90
71367;DHT22;60030;52.274;8.040;2023-04-01T06:08:10;11.30;99.90
71367;DHT22;60030;52.274;8.040;2023-04-01T06:10:50;11.40;99.90
71367;DHT22;60030;52.274;8.040;2023-04-01T06:13:27;11.40;99.90
71367;DHT22;60030;52.274;8.040;2023-04-01T06:16:04;11.40;99.90
71367;DHT22;60030;52.274;8.040;2023-04-01T06:18:57;11.40;99.90
71367;DHT22;60030;52.274;8.040;2023-04-01T06:21:43;11.40;99.90
71367;DHT22;60030;52.274;8.040;2023-04-01T06:24:36;11.30;99.90
71367;DHT22;60030;52.274;8.040;2023-04-01T06:27:16;11.20;99.90
71367;DHT22;60030;52.274;8.040;2023-04-01T06:30:06;11.20;99.90
71367;DHT22;60030;52.274;8.040;2023-04-01T06:32:48;11.40;99.90
71367;DHT22;60030;52.274;8.040;2023-04-01T06:35:44;11.40;99.90
71367;DHT22;60030;52.274;8.040;2023-04-01T06:38:37;11.30;99.90
71367;DHT22;60030;52.274;8.040;2023-04-01T06:41:34;11.20;99.90
71367;DHT22;60030;52.274;8.040;2023-04-01T06:44:14;11.40;99.90
71367;DHT22;60030;52.274;8.040;2023-04-01T06:47:26;11.50;99.90
71367;DHT22;60030;52.274;8.040;2023-04-01T06:50:21;11.60;99.90
71367;DHT22;60030;52.274;8.040;2023-04-01T06:53:14;11.60;99.90
71367;DHT22;60030;52.274;8.040;2023-04-01T06:56:07;11.60;99.90
71367;DHT22;60030;52.274;8.040;2023-04-01T06:58:44;11.50;99.90
71367;DHT22;60030;52.274;8.040;2023-04-01T07:01:16;11.60;99.90
71367;DHT22;60030;52.274;8.040;2023-04-01T07:03:49;11.70;99.90
71367;DHT22;60030;52.274;8.040;2023-04-01T07:06:31;11.70;99.90
71367;DHT22;60030;52.274;8.040;2023-04-01T07:09:05;11.70;99.90
71367;DHT22;60030;52.274;8.040;2023-04-01T07:11:59;11.80;99.90
71367;DHT22;60030;52.274;8.040;2023-04-01T07:15:04;11.90;99.90
71367;DHT22;60030;52.274;8.040;2023-04-01T07:17:38;11.80;99.90
71367;DHT22;60030;52.274;8.040;2023-04-01T07:20:13;11.80;99.90
71367;DHT22;60030;52.274;8.040;2023-04-01T07:22:45;11.90;99.90
71367;DHT22;60030;52.274;8.040;2023-04-01T07:25:24;12.00;99.90
71367;DHT22;60030;52.274;8.040;2023-04-01T07:28:16;12.10;99.90
71367;DHT22;60030;52.274;8.040;2023-04-01T07:30:57;12.20;99.90
71367;DHT22;60030;52.274;8.040;2023-04-01T07:33:35;12.10;99.90
71367;DHT22;60030;52.274;8.040;2023-04-01T07:36:10;12.20;99.90
71367;DHT22;60030;52.274;8.040;2023-04-01T07:38:49;12.20;99.90
71367;DHT22;60030;52.274;8.040;2023-04-01T07:41:47;12.30;99.90
71367;DHT22;60030;52.274;8.040;2023-04-01T07:44:24;12.40;99.90
71367;DHT22;60030;52.274;8.040;2023-04-01T07:47:30;12.40;99.90
71367;DHT22;60030;52.274;8.040;2023-04-01T07:50:08;12.50;99.90
71367;DHT22;60030;52.274;8.040;2023-04-01T07:52:42;12.50;99.90
71367;DHT22;60030;52.274;8.040;2023-04-01T07:55:22;12.60;99.90
71367;DHT22;60030;52.274;8.040;2023-04-01T07:57:56;12.60;99.90
71367;DHT22;60030;52.274;8.040;2023-04-01T08:00:30;12.80;99.90
71367;DHT22;60030;52.274;8.040;2023-04-01T08:03:33;12.90;99.90
71367;DHT22;60030;52.274;8.040;2023-04-01T08:06:11;13.00;99.90
71367;DHT22;60030;52.274;8.040;2023-04-01T08:08:49;13.10;99.90
71367;DHT22;60030;52.274;8.040;2023-04-01T08:11:41;13.20;99.90
71367;DHT22;60030;52.274;8.040;2023-04-01T08:14:36;13.20;99.90
71367;DHT22;60030;52.274;8.040;2023-04-01T08:17:30;13.30;99.90
71367;DHT22;60030;52.274;8.040;2023-04-01T08:20:10;13.50;99.90
71367;DHT22;60030;52.274;8.040;2023-04-01T08:22:42;13.50;99.90
71367;DHT22;60030;52.274;8.040;2023-04-01T08:25:24;13.70;99.90
71367;DHT22;60030;52.274;8.040;2023-04-01T08:27:56;13.80;99.90
71367;DHT22;60030;52.274;8.040;2023-04-01T08:30:28;13.80;99.90
71367;DHT22;60030;52.274;8.040;2023-04-01T08:33:08;13.70;99.90
71367;DHT22;60030;52.274;8.040;2023-04-01T08:35:40;13.80;99.90
71367;DHT22;60030;52.274;8.040;2023-04-01T08:38:15;13.50;99.90
71367;DHT22;60030;52.274;8.040;2023-04-01T08:41:08;13.50;99.90
71367;DHT22;60030;52.274;8.040;2023-04-01T08:44:33;13.50;99.90
71367;DHT22;60030;52.274;8.040;2023-04-01T08:50:33;13.70;99.90
71367;DHT22;60030;52.274;8.040;2023-04-01T08:53:42;13.80;99.90
71367;DHT22;60030;52.274;8.040;2023-04-01T08:56:18;13.80;99.90
71367;DHT22;60030;52.274;8.040;2023-04-01T08:59:27;13.70;99.90
71367;DHT22;60030;52.274;8.040;2023-04-01T09:05:36;13.50;99.90
71367;DHT22;60030;52.274;8.040;2023-04-01T09:08:16;13.50;99.90
71367;DHT22;60030;52.274;8.040;2023-04-01T09:11:17;13.40;99.90
71367;DHT22;60030;52.274;8.040;2023-04-01T09:14:25;13.40;99.90
71367;DHT22;60030;52.274;8.040;2023-04-01T09:17:26;13.30;99.90
71367;DHT22;60030;52.274;8.040;2023-04-01T09:20:29;13.40;99.90
71367;DHT22;60030;52.274;8.040;2023-04-01T09:26:13;14.10;99.90
71367;DHT22;60030;52.274;8.040;2023-04-01T09:28:52;14.30;99.90
71367;DHT22;60030;52.274;8.040;2023-04-01T09:31:39;14.50;99.90
71367;DHT22;60030;52.274;8.040;2023-04-01T09:34:34;14.20;99.90
71367;DHT22;60030;52.274;8.040;2023-04-01T09:37:20;14.60;99.90
71367;DHT22;60030;52.274;8.040;2023-04-01T09:40:16;14.80;99.90
71367;DHT22;60030;52.274;8.040;2023-04-01T09:43:02;14.70;99.90
71367;DHT22;60030;52.274;8.040;2023-04-01T09:45:42;14.90;99.90
71367;DHT22;60030;52.274;8.040;2023-04-01T09:48:28;15.10;99.90
71367;DHT22;60030;52.274;8.040;2023-04-01T09:51:08;14.70;99.90
71367;DHT22;60030;52.274;8.040;2023-04-01T09:53:53;14.20;99.90
71367;DHT22;60030;52.274;8.040;2023-04-01T09:56:52;14.00;99.90
71367;DHT22;60030;52.274;8.040;2023-04-01T09:59:43;14.00;99.90
71367;DHT22;60030;52.274;8.040;2023-04-01T10:06:17;14.30;99.90
71367;DHT22;60030;52.274;8.040;2023-04-01T10:12:19;14.10;99.90
71367;DHT22;60030;52.274;8.040;2023-04-01T10:15:33;14.00;99.90
71367;DHT22;60030;52.274;8.040;2023-04-01T10:21:44;14.30;99.90
71367;DHT22;60030;52.274;8.040;2023-04-01T10:24:40;14.70;99.90
71367;DHT22;60030;52.274;8.040;2023-04-01T10:27:48;14.50;99.90
71367;DHT22;60030;52.274;8.040;2023-04-01T10:31:25;14.50;99.90
71367;DHT22;60030;52.274;8.040;2023-04-01T10:34:10;14.80;99.90
71367;DHT22;60030;52.274;8.040;2023-04-01T10:36:53;14.40;99.90
71367;DHT22;60030;52.274;8.040;2023-04-01T10:39:53;14.10;99.90
71367;DHT22;60030;52.274;8.040;2023-04-01T10:46:16;14.30;99.90
71367;DHT22;60030;52.274;8.040;2023-04-01T10:55:35;14.40;99.90
71367;DHT22;60030;52.274;8.040;2023-04-01T10:58:51;14.50;99.90
71367;DHT22;60030;52.274;8.040;2023-04-01T11:01:57;14.60;99.90
71367;DHT22;60030;52.274;8.040;2023-04-01T11:08:37;14.70;99.90
71367;DHT22;60030;52.274;8.040;2023-04-01T11:14:41;15.00;99.90
71367;DHT22;60030;52.274;8.040;2023-04-01T11:23:50;14.90;99.90
71367;DHT22;60030;52.274;8.040;2023-04-01T11:26:33;14.80;99.90
71367;DHT22;60030;52.274;8.040;2023-04-01T11:29:51;14.80;99.90
71367;DHT22;60030;52.274;8.040;2023-04-01T11:32:42;15.00;99.90
71367;DHT22;60030;52.274;8.040;2023-04-01T11:35:34;15.40;99.90
71367;DHT22;60030;52.274;8.040;2023-04-01T11:38:17;15.20;99.90
71367;DHT22;60030;52.274;8.040;2023-04-01T11:40:52;15.30;99.90
71367;DHT22;60030;52.274;8.040;2023-04-01T11:43:28;15.30;99.90
71367;DHT22;60030;52.274;8.040;2023-04-01T11:46:19;15.60;99.90
71367;DHT22;60030;52.274;8.040;2023-04-01T11:48:58;15.80;99.90
71367;DHT22;60030;52.274;8.040;2023-04-01T11:51:54;15.80;99.90
71367;DHT22;60030;52.274;8.040;2023-04-01T11:54:35;15.50;99.90
71367;DHT22;60030;52.274;8.040;2023-04-01T11:57:31;15.30;99.90
71367;DHT22;60030;52.274;8.040;2023-04-01T12:00:16;15.10;99.90
71367;DHT22;60030;52.274;8.040;2023-04-01T12:02:58;15.10;99.90
71367;DHT22;60030;52.274;8.040;2023-04-01T12:05:39;15.00;99.90
71367;DHT22;60030;52.274;8.040;2023-04-01T12:08:21;14.60;99.90
71367;DHT22;60030;52.274;8.040;2023-04-01T12:10:56;14.50;99.90
71367;DHT22;60030;52.274;8.040;2023-04-01T12:13:32;14.40;99.90
71367;DHT22;60030;52.274;8.040;2023-04-01T12:16:19;14.20;99.90
71367;DHT22;60030;52.274;8.040;2023-04-01T12:18:52;14.40;99.90
71367;DHT22;60030;52.274;8.040;2023-04-01T12:21:27;14.20;99.90
71367;DHT22;60030;52.274;8.040;2023-04-01T12:24:20;14.30;99.90
71367;DHT22;60030;52.274;8.040;2023-04-01T12:27:02;14.20;99.90
71367;DHT22;60030;52.274;8.040;2023-04-01T12:29:44;14.20;99.90
71367;DHT22;60030;52.274;8.040;2023-04-01T12:32:23;14.40;99.90
71367;DHT22;60030;52.274;8.040;2023-04-01T12:35:05;14.20;99.90
71367;DHT22;60030;52.274;8.040;2023-04-01T12:37:45;14.20;99.90
71367;DHT22;60030;52.274;8.040;2023-04-01T12:40:40;13.80;99.90
71367;DHT22;60030;52.274;8.040;2023-04-01T12:43:28;14.00;99.90
71367;DHT22;60030;52.274;8.040;2023-04-01T12:46:05;14.40;99.90
71367;DHT22;60030;52.274;8.040;2023-04-01T12:49:14;14.20;99.90
71367;DHT22;60030;52.274;8.040;2023-04-01T12:51:56;13.90;99.90
71367;DHT22;60030;52.274;8.040;2023-04-01T12:54:46;13.80;99.90
71367;DHT22;60030;52.274;8.040;2023-04-01T13:03:21;14.00;99.90
71367;DHT22;60030;52.274;8.040;2023-04-01T13:06:29;13.90;99.90
71367;DHT22;60030;52.274;8.040;2023-04-01T13:09:11;13.80;99.90
71367;DHT22;60030;52.274;8.040;2023-04-01T13:11:52;13.60;99.90
71367;DHT22;60030;52.274;8.040;2023-04-01T13:17:29;13.70;99.90
71367;DHT22;60030;52.274;8.040;2023-04-01T13:20:03;13.60;99.90
71367;DHT22;60030;52.274;8.040;2023-04-01T13:22:45;13.80;99.90
71367;DHT22;60030;52.274;8.040;2023-04-01T13:25:24;14.00;99.90
71367;DHT22;60030;52.274;8.040;2023-04-01T13:27:58;14.00;99.90
71367;DHT22;60030;52.274;8.040;2023-04-01T13:30:30;13.90;99.90
71367;DHT22;60030;52.274;8.040;2023-04-01T13:33:04;14.20;99.90
71367;DHT22;60030;52.274;8.040;2023-04-01T13:35:41;14.60;99.90
71367;DHT22;60030;52.274;8.040;2023-04-01T13:38:33;14.90;99.90
71367;DHT22;60030;52.274;8.040;2023-04-01T13:41:12;14.90;99.90
71367;DHT22;60030;52.274;8.040;2023-04-01T13:43:49;14.90;99.90
71367;DHT22;60030;52.274;8.040;2023-04-01T13:46:38;15.00;99.90
71367;DHT22;60030;52.274;8.040;2023-04-01T13:49:34;15.30;99.90
71367;DHT22;60030;52.274;8.040;2023-04-01T13:52:25;15.60;99.90
71367;DHT22;60030;52.274;8.040;2023-04-01T13:55:16;15.70;99.90
71367;DHT22;60030;52.274;8.040;2023-04-01T13:57:58;15.60;99.90
71367;DHT22;60030;52.274;8.040;2023-04-01T14:00:40;15.60;99.90
71367;DHT22;60030;52.274;8.040;2023-04-01T14:03:30;15.60;99.90
71367;DHT22;60030;52.274;8.040;2023-04-01T14:06:23;15.50;99.90
71367;DHT22;60030;52.274;8.040;2023-04-01T14:09:20;15.80;99.90
71367;DHT22;60030;52.274;8.040;2023-04-01T14:11:56;15.60;99.90
71367;DHT22;60030;52.274;8.040;2023-04-01T14:14:40;15.50;99.90
71367;DHT22;60030;52.274;8.040;2023-04-01T14:17:24;14.90;99.90
71367;DHT22;60030;52.274;8.040;2023-04-01T14:20:22;14.50;99.90
71367;DHT22;60030;52.274;8.040;2023-04-01T14:23:08;13.90;99.90
71367;DHT22;60030;52.274;8.040;2023-04-01T14:26:14;13.90;99.90
71367;DHT22;60030;52.274;8.040;2023-04-01T14:28:53;13.60;99.90
71367;DHT22;60030;52.274;8.040;2023-04-01T14:31:42;13.40;99.90
71367;DHT22;60030;52.274;8.040;2023-04-01T14:34:24;13.30;99.90
71367;DHT22;60030;52.274;8.040;2023-04-01T14:37:04;13.30;99.90
71367;DHT22;60030;52.274;8.040;2023-04-01T14:40:00;13.30;99.90
71367;DHT22;60030;52.274;8.040;2023-04-01T14:42:59;13.40;99.90
71367;DHT22;60030;52.274;8.040;2023-04-01T14:45:59;13.60;99.90
71367;DHT22;60030;52.274;8.040;2023-04-01T14:48:32;13.70;99.90
71367;DHT22;60030;52.274;8.040;2023-04-01T14:51:10;13.60;99.90
71367;DHT22;60030;52.274;8.040;2023-04-01T14:53:44;13.70;99.90
71367;DHT22;60030;52.274;8.040;2023-04-01T14:56:40;13.90;99.90
71367;DHT22;60030;52.274;8.040;2023-04-01T14:59:10;13.90;99.90
71367;DHT22;60030;52.274;8.040;2023-04-01T15:01:47;13.60;99.90
71367;DHT22;60030;52.274;8.040;2023-04-01T15:04:50;13.50;99.90
71367;DHT22;60030;52.274;8.040;2023-04-01T15:07:50;13.30;99.90
71367;DHT22;60030;52.274;8.040;2023-04-01T15:13:30;13.20;99.90
71367;DHT22;60030;52.274;8.040;2023-04-01T15:16:10;13.00;99.90
71367;DHT22;60030;52.274;8.040;2023-04-01T15:18:48;13.00;99.90
71367;DHT22;60030;52.274;8.040;2023-04-01T15:21:39;13.10;99.90
71367;DHT22;60030;52.274;8.040;2023-04-01T15:24:15;13.10;99.90
71367;DHT22;60030;52.274;8.040;2023-04-01T15:27:06;12.80;99.90
71367;DHT22;60030;52.274;8.040;2023-04-01T15:29:47;12.90;99.90
71367;DHT22;60030;52.274;8.040;2023-04-01T15:32:28;12.90;99.90
71367;DHT22;60030;52.274;8.040;2023-04-01T15:35:03;12.80;99.90
71367;DHT22;60030;52.274;8.040;2023-04-01T15:37:39;12.80;99.90
71367;DHT22;60030;52.274;8.040;2023-04-01T15:40:20;12.80;99.90
71367;DHT22;60030;52.274;8.040;2023-04-01T15:43:03;12.90;99.90
71367;DHT22;60030;52.274;8.040;2023-04-01T15:45:42;12.70;99.90
71367;DHT22;60030;52.274;8.040;2023-04-01T15:48:46;12.70;99.90
71367;DHT22;60030;52.274;8.040;2023-04-01T15:51:26;12.60;99.90
71367;DHT22;60030;52.274;8.040;2023-04-01T15:57:04;12.10;99.90
71367;DHT22;60030;52.274;8.040;2023-04-01T16:02:47;12.00;99.90
71367;DHT22;60030;52.274;8.040;2023-04-01T16:05:37;11.90;99.90
71367;DHT22;60030;52.274;8.040;2023-04-01T16:08:19;11.90;99.90
71367;DHT22;60030;52.274;8.040;2023-04-01T16:11:03;11.80;99.90
71367;DHT22;60030;52.274;8.040;2023-04-01T16:13:45;11.80;99.90
71367;DHT22;60030;52.274;8.040;2023-04-01T16:16:19;11.60;99.90
71367;DHT22;60030;52.274;8.040;2023-04-01T16:19:01;11.60;99.90
71367;DHT22;60030;52.274;8.040;2023-04-01T16:21:37;11.50;99.90
71367;DHT22;60030;52.274;8.040;2023-04-01T16:24:15;11.50;99.90
71367;DHT22;60030;52.274;8.040;2023-04-01T16:26:49;11.40;99.90
71367;DHT22;60030;52.274;8.040;2023-04-01T16:29:27;11.20;99.90
71367;DHT22;60030;52.274;8.040;2023-04-01T16:32:00;11.20;99.90
71367;DHT22;60030;52.274;8.040;2023-04-01T16:34:34;11.20;99.90
71367;DHT22;60030;52.274;8.040;2023-04-01T16:37:07;11.00;99.90
71367;DHT22;60030;52.274;8.040;2023-04-01T16:39:45;11.00;99.90
71367;DHT22;60030;52.274;8.040;2023-04-01T16:42:26;11.00;99.90
71367;DHT22;60030;52.274;8.040;2023-04-01T16:45:00;11.00;99.90
71367;DHT22;60030;52.274;8.040;2023-04-01T16:47:31;11.00;99.90
71367;DHT22;60030;52.274;8.040;2023-04-01T16:50:05;10.90;99.90
71367;DHT22;60030;52.274;8.040;2023-04-01T16:52:43;10.90;99.90
71367;DHT22;60030;52.274;8.040;2023-04-01T16:55:18;10.70;99.90
71367;DHT22;60030;52.274;8.040;2023-04-01T16:57:50;10.60;99.90
71367;DHT22;60030;52.274;8.040;2023-04-01T17:00:24;10.60;99.90
71367;DHT22;60030;52.274;8.040;2023-04-01T17:02:58;10.60;99.90
71367;DHT22;60030;52.274;8.040;2023-04-01T17:05:39;10.50;99.90
71367;DHT22;60030;52.274;8.040;2023-04-01T17:08:17;10.40;99.90
71367;DHT22;60030;52.274;8.040;2023-04-01T17:10:52;10.30;99.90
71367;DHT22;60030;52.274;8.040;2023-04-01T17:13:34;10.30;99.90
71367;DHT22;60030;52.274;8.040;2023-04-01T17:16:20;10.40;99.90
71367;DHT22;60030;52.274;8.040;2023-04-01T17:18:54;10.40;99.90
71367;DHT22;60030;52.274;8.040;2023-04-01T17:21:32;10.30;99.90
71367;DHT22;60030;52.274;8.040;2023-04-01T17:24:09;10.20;99.90
71367;DHT22;60030;52.274;8.040;2023-04-01T17:26:46;10.30;99.90
71367;DHT22;60030;52.274;8.040;2023-04-01T17:29:24;10.20;99.90
71367;DHT22;60030;52.274;8.040;2023-04-01T17:32:03;10.20;99.90
71367;DHT22;60030;52.274;8.040;2023-04-01T17:34:54;10.10;99.90
71367;DHT22;60030;52.274;8.040;2023-04-01T17:37:34;10.00;99.90
71367;DHT22;60030;52.274;8.040;2023-04-01T17:40:26;10.00;99.90
71367;DHT22;60030;52.274;8.040;2023-04-01T17:43:07;10.00;99.90
71367;DHT22;60030;52.274;8.040;2023-04-01T17:45:41;10.00;99.90
71367;DHT22;60030;52.274;8.040;2023-04-01T17:48:17;10.00;99.90